sensor_id;sensor_type;location;lat;lon;timestamp;P1;durP1;ratioP1;P2;durP2;ratioP2
26502;SDS011;14177;51.520;6.764;2024-01-10T00:00:42;10.30;;;4.55;;
26502;SDS011;14177;51.520;6.764;2024-01-10T00:03:09;8.30;;;3.70;;
26502;SDS011;14177;51.520;6.764;2024-01-10T00:05:36;11.30;;;4.43;;
26502;SDS011;14177;51.520;6.764;2024-01-10T00:08:03;8.13;;;3.92;;
26502;SDS011;14177;51.520;6.764;2024-01-10T00:10:30;7.25;;;3.92;;
26502;SDS011;14177;51.520;6.764;2024-01-10T00:12:57;10.48;;;4.15;;
26502;SDS011;14177;51.520;6.764;2024-01-10T00:15:24;7.13;;;4.07;;
26502;SDS011;14177;51.520;6.764;2024-01-10T00:17:51;8.82;;;4.63;;
26502;SDS011;14177;51.520;6.764;2024-01-10T00:20:19;10.32;;;4.47;;
26502;SDS011;14177;51.520;6.764;2024-01-10T00:22:46;7.25;;;4.15;;
26502;SDS011;14177;51.520;6.764;2024-01-10T00:25:13;6.53;;;3.72;;
26502;SDS011;14177;51.520;6.764;2024-01-10T00:27:40;8.90;;;4.65;;
26502;SDS011;14177;51.520;6.764;2024-01-10T00:30:07;6.38;;;3.92;;
26502;SDS011;14177;51.520;6.764;2024-01-10T00:32:35;7.65;;;4.28;;
26502;SDS011;14177;51.520;6.764;2024-01-10T00:35:02;8.68;;;4.13;;
26502;SDS011;14177;51.520;6.764;2024-01-10T00:37:29;14.70;;;4.60;;
26502;SDS011;14177;51.520;6.764;2024-01-10T00:39:56;12.25;;;4.00;;
26502;SDS011;14177;51.520;6.764;2024-01-10T00:42:23;11.25;;;4.40;;
26502;SDS011;14177;51.520;6.764;2024-01-10T00:44:50;11.00;;;5.15;;
26502;SDS011;14177;51.520;6.764;2024-01-10T00:47:17;9.23;;;4.47;;
26502;SDS011;14177;51.520;6.764;2024-01-10T00:49:44;9.82;;;4.55;;
26502;SDS011;14177;51.520;6.764;2024-01-10T00:52:11;9.68;;;4.80;;
26502;SDS011;14177;51.520;6.764;2024-01-10T00:54:38;9.30;;;4.13;;
26502;SDS011;14177;51.520;6.764;2024-01-10T00:57:05;11.30;;;4.45;;
26502;SDS011;14177;51.520;6.764;2024-01-10T00:59:32;8.30;;;4.40;;
26502;SDS011;14177;51.520;6.764;2024-01-10T01:01:59;9.98;;;4.63;;
26502;SDS011;14177;51.520;6.764;2024-01-10T01:04:26;6.75;;;4.55;;
26502;SDS011;14177;51.520;6.764;2024-01-10T01:06:53;10.00;;;4.07;;
26502;SDS011;14177;51.520;6.764;2024-01-10T01:09:20;6.82;;;3.72;;
26502;SDS011;14177;51.520;6.764;2024-01-10T01:11:47;15.55;;;4.90;;
26502;SDS011;14177;51.520;6.764;2024-01-10T01:14:14;8.48;;;3.80;;
26502;SDS011;14177;51.520;6.764;2024-01-10T01:16:41;6.75;;;4.22;;
26502;SDS011;14177;51.520;6.764;2024-01-10T01:19:08;10.63;;;3.92;;
26502;SDS011;14177;51.520;6.764;2024-01-10T01:21:35;8.35;;;4.65;;
26502;SDS011;14177;51.520;6.764;2024-01-10T01:24:02;11.35;;;4.50;;
26502;SDS011;14177;51.520;6.764;2024-01-10T01:26:29;8.80;;;4.15;;
26502;SDS011;14177;51.520;6.764;2024-01-10T01:28:56;7.60;;;4.38;;
26502;SDS011;14177;51.520;6.764;2024-01-10T01:31:23;9.48;;;3.92;;
26502;SDS011;14177;51.520;6.764;2024-01-10T01:33:50;10.02;;;4.55;;
26502;SDS011;14177;51.520;6.764;2024-01-10T01:36:17;11.27;;;5.05;;
26502;SDS011;14177;51.520;6.764;2024-01-10T01:38:44;13.70;;;4.78;;
26502;SDS011;14177;51.520;6.764;2024-01-10T01:41:11;10.57;;;5.05;;
26502;SDS011;14177;51.520;6.764;2024-01-10T01:43:41;8.57;;;4.40;;
26502;SDS011;14177;51.520;6.764;2024-01-10T01:46:09;8.90;;;3.97;;
26502;SDS011;14177;51.520;6.764;2024-01-10T01:48:37;8.45;;;4.50;;
26502;SDS011;14177;51.520;6.764;2024-01-10T01:51:05;8.10;;;3.85;;
26502;SDS011;14177;51.520;6.764;2024-01-10T01:53:34;10.02;;;4.18;;
26502;SDS011;14177;51.520;6.764;2024-01-10T01:56:04;8.98;;;4.25;;
26502;SDS011;14177;51.520;6.764;2024-01-10T01:58:34;10.73;;;5.07;;
26502;SDS011;14177;51.520;6.764;2024-01-10T02:01:04;7.05;;;4.70;;
26502;SDS011;14177;51.520;6.764;2024-01-10T02:03:32;10.15;;;4.90;;
26502;SDS011;14177;51.520;6.764;2024-01-10T02:06:00;13.20;;;4.88;;
26502;SDS011;14177;51.520;6.764;2024-01-10T02:08:34;9.48;;;4.32;;
26502;SDS011;14177;51.520;6.764;2024-01-10T02:11:02;11.32;;;4.38;;
26502;SDS011;14177;51.520;6.764;2024-01-10T02:13:33;6.80;;;4.07;;
26502;SDS011;14177;51.520;6.764;2024-01-10T02:16:01;8.32;;;3.60;;
26502;SDS011;14177;51.520;6.764;2024-01-10T02:18:29;10.80;;;4.93;;
26502;SDS011;14177;51.520;6.764;2024-01-10T02:20:57;10.60;;;5.18;;
26502;SDS011;14177;51.520;6.764;2024-01-10T02:23:24;11.40;;;4.25;;
26502;SDS011;14177;51.520;6.764;2024-01-10T02:25:51;9.55;;;4.45;;
26502;SDS011;14177;51.520;6.764;2024-01-10T02:28:18;10.38;;;4.05;;
26502;SDS011;14177;51.520;6.764;2024-01-10T02:30:45;13.38;;;4.38;;
26502;SDS011;14177;51.520;6.764;2024-01-10T02:33:13;9.15;;;4.22;;
26502;SDS011;14177;51.520;6.764;2024-01-10T02:35:41;9.95;;;4.00;;
26502;SDS011;14177;51.520;6.764;2024-01-10T02:38:08;10.77;;;4.25;;
26502;SDS011;14177;51.520;6.764;2024-01-10T02:40:35;6.78;;;3.95;;
26502;SDS011;14177;51.520;6.764;2024-01-10T02:43:02;10.50;;;4.65;;
26502;SDS011;14177;51.520;6.764;2024-01-10T02:45:29;10.75;;;4.72;;
26502;SDS011;14177;51.520;6.764;2024-01-10T02:47:56;8.80;;;4.28;;
26502;SDS011;14177;51.520;6.764;2024-01-10T02:50:23;13.07;;;4.45;;
26502;SDS011;14177;51.520;6.764;2024-01-10T02:52:50;8.15;;;4.10;;
26502;SDS011;14177;51.520;6.764;2024-01-10T02:55:18;7.97;;;4.25;;
26502;SDS011;14177;51.520;6.764;2024-01-10T02:57:44;14.50;;;4.35;;
26502;SDS011;14177;51.520;6.764;2024-01-10T03:00:12;9.73;;;4.47;;
26502;SDS011;14177;51.520;6.764;2024-01-10T03:02:40;10.30;;;5.25;;
26502;SDS011;14177;51.520;6.764;2024-01-10T03:05:07;11.48;;;5.10;;
26502;SDS011;14177;51.520;6.764;2024-01-10T03:07:34;10.32;;;4.55;;
26502;SDS011;14177;51.520;6.764;2024-01-10T03:10:01;8.85;;;5.03;;
26502;SDS011;14177;51.520;6.764;2024-01-10T03:12:30;9.05;;;4.50;;
26502;SDS011;14177;51.520;6.764;2024-01-10T03:14:57;6.97;;;4.10;;
26502;SDS011;14177;51.520;6.764;2024-01-10T03:17:25;9.63;;;4.28;;
26502;SDS011;14177;51.520;6.764;2024-01-10T03:19:52;7.82;;;3.90;;
26502;SDS011;14177;51.520;6.764;2024-01-10T03:22:19;13.60;;;5.00;;
26502;SDS011;14177;51.520;6.764;2024-01-10T03:24:46;8.43;;;4.50;;
26502;SDS011;14177;51.520;6.764;2024-01-10T03:27:13;7.88;;;4.35;;
26502;SDS011;14177;51.520;6.764;2024-01-10T03:29:40;12.02;;;5.00;;
26502;SDS011;14177;51.520;6.764;2024-01-10T03:32:07;11.07;;;4.15;;
26502;SDS011;14177;51.520;6.764;2024-01-10T03:34:34;7.47;;;3.83;;
26502;SDS011;14177;51.520;6.764;2024-01-10T03:37:01;9.95;;;4.90;;
26502;SDS011;14177;51.520;6.764;2024-01-10T03:39:28;12.27;;;5.18;;
26502;SDS011;14177;51.520;6.764;2024-01-10T03:41:55;10.07;;;4.88;;
26502;SDS011;14177;51.520;6.764;2024-01-10T03:44:22;8.55;;;4.50;;
26502;SDS011;14177;51.520;6.764;2024-01-10T03:46:49;9.98;;;4.70;;
26502;SDS011;14177;51.520;6.764;2024-01-10T03:49:16;9.38;;;4.22;;
26502;SDS011;14177;51.520;6.764;2024-01-10T03:51:44;16.02;;;4.70;;
26502;SDS011;14177;51.520;6.764;2024-01-10T03:54:11;10.15;;;4.35;;
26502;SDS011;14177;51.520;6.764;2024-01-10T03:56:38;10.70;;;4.95;;
26502;SDS011;14177;51.520;6.764;2024-01-10T03:59:05;10.45;;;4.85;;
26502;SDS011;14177;51.520;6.764;2024-01-10T04:01:32;9.80;;;4.13;;
26502;SDS011;14177;51.520;6.764;2024-01-10T04:03:59;11.35;;;4.70;;
26502;SDS011;14177;51.520;6.764;2024-01-10T04:06:26;9.90;;;4.60;;
26502;SDS011;14177;51.520;6.764;2024-01-10T04:08:55;9.05;;;4.82;;
26502;SDS011;14177;51.520;6.764;2024-01-10T04:11:22;11.15;;;4.28;;
26502;SDS011;14177;51.520;6.764;2024-01-10T04:13:49;17.08;;;4.70;;
26502;SDS011;14177;51.520;6.764;2024-01-10T04:16:16;10.25;;;4.53;;
26502;SDS011;14177;51.520;6.764;2024-01-10T04:18:43;11.80;;;5.43;;
26502;SDS011;14177;51.520;6.764;2024-01-10T04:21:10;8.80;;;4.07;;
26502;SDS011;14177;51.520;6.764;2024-01-10T04:23:38;10.13;;;4.72;;
26502;SDS011;14177;51.520;6.764;2024-01-10T04:26:05;9.05;;;4.50;;
26502;SDS011;14177;51.520;6.764;2024-01-10T04:28:32;8.02;;;4.85;;
26502;SDS011;14177;51.520;6.764;2024-01-10T04:30:59;11.20;;;5.65;;
26502;SDS011;14177;51.520;6.764;2024-01-10T04:33:26;9.68;;;4.55;;
26502;SDS011;14177;51.520;6.764;2024-01-10T04:35:53;9.20;;;4.78;;
26502;SDS011;14177;51.520;6.764;2024-01-10T04:38:20;14.13;;;4.85;;
26502;SDS011;14177;51.520;6.764;2024-01-10T04:40:48;12.40;;;4.93;;
26502;SDS011;14177;51.520;6.764;2024-01-10T04:43:15;7.72;;;4.40;;
26502;SDS011;14177;51.520;6.764;2024-01-10T04:45:42;9.82;;;5.65;;
26502;SDS011;14177;51.520;6.764;2024-01-10T04:48:09;6.47;;;4.40;;
26502;SDS011;14177;51.520;6.764;2024-01-10T04:50:36;9.73;;;4.43;;
26502;SDS011;14177;51.520;6.764;2024-01-10T04:53:03;11.85;;;4.78;;
26502;SDS011;14177;51.520;6.764;2024-01-10T04:55:30;11.75;;;4.97;;
26502;SDS011;14177;51.520;6.764;2024-01-10T04:57:57;9.80;;;4.65;;
26502;SDS011;14177;51.520;6.764;2024-01-10T05:00:24;9.07;;;4.65;;
26502;SDS011;14177;51.520;6.764;2024-01-10T05:02:53;7.05;;;3.90;;
26502;SDS011;14177;51.520;6.764;2024-01-10T05:05:20;9.02;;;4.55;;
26502;SDS011;14177;51.520;6.764;2024-01-10T05:07:50;9.95;;;4.85;;
26502;SDS011;14177;51.520;6.764;2024-01-10T05:10:18;13.57;;;4.85;;
26502;SDS011;14177;51.520;6.764;2024-01-10T05:12:45;8.23;;;4.63;;
26502;SDS011;14177;51.520;6.764;2024-01-10T05:15:12;11.20;;;5.68;;
26502;SDS011;14177;51.520;6.764;2024-01-10T05:17:39;10.88;;;4.75;;
26502;SDS011;14177;51.520;6.764;2024-01-10T05:20:06;9.02;;;4.75;;
26502;SDS011;14177;51.520;6.764;2024-01-10T05:22:34;8.88;;;4.50;;
26502;SDS011;14177;51.520;6.764;2024-01-10T05:25:02;9.25;;;4.95;;
26502;SDS011;14177;51.520;6.764;2024-01-10T05:27:30;11.07;;;5.00;;
26502;SDS011;14177;51.520;6.764;2024-01-10T05:29:58;11.85;;;5.40;;
26502;SDS011;14177;51.520;6.764;2024-01-10T05:32:26;14.95;;;5.50;;
26502;SDS011;14177;51.520;6.764;2024-01-10T05:34:54;9.15;;;4.55;;
26502;SDS011;14177;51.520;6.764;2024-01-10T05:37:21;8.63;;;4.90;;
26502;SDS011;14177;51.520;6.764;2024-01-10T05:39:48;10.88;;;5.40;;
26502;SDS011;14177;51.520;6.764;2024-01-10T05:42:16;11.32;;;4.82;;
26502;SDS011;14177;51.520;6.764;2024-01-10T05:44:43;12.27;;;5.72;;
26502;SDS011;14177;51.520;6.764;2024-01-10T05:47:10;12.15;;;6.20;;
26502;SDS011;14177;51.520;6.764;2024-01-10T05:49:37;10.68;;;5.57;;
26502;SDS011;14177;51.520;6.764;2024-01-10T05:52:04;13.80;;;5.53;;
26502;SDS011;14177;51.520;6.764;2024-01-10T05:54:31;10.00;;;4.85;;
26502;SDS011;14177;51.520;6.764;2024-01-10T05:56:58;8.07;;;4.97;;
26502;SDS011;14177;51.520;6.764;2024-01-10T05:59:27;9.23;;;5.72;;
26502;SDS011;14177;51.520;6.764;2024-01-10T06:01:55;9.60;;;5.30;;
26502;SDS011;14177;51.520;6.764;2024-01-10T06:04:24;10.95;;;5.20;;
26502;SDS011;14177;51.520;6.764;2024-01-10T06:06:51;9.82;;;5.43;;
26502;SDS011;14177;51.520;6.764;2024-01-10T06:09:18;9.32;;;4.72;;
26502;SDS011;14177;51.520;6.764;2024-01-10T06:11:48;9.57;;;5.32;;
26502;SDS011;14177;51.520;6.764;2024-01-10T06:14:15;10.88;;;5.32;;
26502;SDS011;14177;51.520;6.764;2024-01-10T06:16:43;10.90;;;5.45;;
26502;SDS011;14177;51.520;6.764;2024-01-10T06:19:13;8.13;;;5.10;;
26502;SDS011;14177;51.520;6.764;2024-01-10T06:21:41;9.25;;;4.93;;
26502;SDS011;14177;51.520;6.764;2024-01-10T06:24:08;13.48;;;6.65;;
26502;SDS011;14177;51.520;6.764;2024-01-10T06:26:35;12.88;;;6.15;;
26502;SDS011;14177;51.520;6.764;2024-01-10T06:29:02;13.43;;;5.60;;
26502;SDS011;14177;51.520;6.764;2024-01-10T06:31:29;10.60;;;5.88;;
26502;SDS011;14177;51.520;6.764;2024-01-10T06:33:56;10.27;;;5.07;;
26502;SDS011;14177;51.520;6.764;2024-01-10T06:36:23;12.95;;;4.80;;
26502;SDS011;14177;51.520;6.764;2024-01-10T06:38:50;11.80;;;5.72;;
26502;SDS011;14177;51.520;6.764;2024-01-10T06:41:17;12.05;;;6.20;;
26502;SDS011;14177;51.520;6.764;2024-01-10T06:43:51;8.87;;;5.37;;
26502;SDS011;14177;51.520;6.764;2024-01-10T06:46:19;17.35;;;6.20;;
26502;SDS011;14177;51.520;6.764;2024-01-10T06:48:47;11.90;;;5.38;;
26502;SDS011;14177;51.520;6.764;2024-01-10T06:51:16;14.23;;;5.97;;
26502;SDS011;14177;51.520;6.764;2024-01-10T06:53:43;13.40;;;5.47;;
26502;SDS011;14177;51.520;6.764;2024-01-10T06:56:10;17.02;;;6.72;;
26502;SDS011;14177;51.520;6.764;2024-01-10T06:58:38;8.63;;;5.28;;
26502;SDS011;14177;51.520;6.764;2024-01-10T07:01:10;12.93;;;6.10;;
26502;SDS011;14177;51.520;6.764;2024-01-10T07:03:40;13.57;;;5.60;;
26502;SDS011;14177;51.520;6.764;2024-01-10T07:06:07;11.38;;;6.28;;
26502;SDS011;14177;51.520;6.764;2024-01-10T07:08:34;13.13;;;6.30;;
26502;SDS011;14177;51.520;6.764;2024-01-10T07:11:01;16.15;;;5.85;;
26502;SDS011;14177;51.520;6.764;2024-01-10T07:13:29;20.08;;;5.78;;
26502;SDS011;14177;51.520;6.764;2024-01-10T07:15:57;12.63;;;6.22;;
26502;SDS011;14177;51.520;6.764;2024-01-10T07:18:28;13.00;;;5.93;;
26502;SDS011;14177;51.520;6.764;2024-01-10T07:20:56;19.15;;;6.32;;
26502;SDS011;14177;51.520;6.764;2024-01-10T07:23:23;11.43;;;6.07;;
26502;SDS011;14177;51.520;6.764;2024-01-10T07:25:50;13.27;;;5.63;;
26502;SDS011;14177;51.520;6.764;2024-01-10T07:28:18;15.02;;;6.55;;
26502;SDS011;14177;51.520;6.764;2024-01-10T07:30:46;14.95;;;6.80;;
26502;SDS011;14177;51.520;6.764;2024-01-10T07:33:14;13.60;;;6.10;;
26502;SDS011;14177;51.520;6.764;2024-01-10T07:35:42;11.63;;;6.32;;
26502;SDS011;14177;51.520;6.764;2024-01-10T07:38:09;18.83;;;7.40;;
26502;SDS011;14177;51.520;6.764;2024-01-10T07:40:36;14.15;;;6.80;;
26502;SDS011;14177;51.520;6.764;2024-01-10T07:43:04;9.80;;;5.32;;
26502;SDS011;14177;51.520;6.764;2024-01-10T07:45:31;18.38;;;7.28;;
26502;SDS011;14177;51.520;6.764;2024-01-10T07:47:59;9.27;;;5.35;;
26502;SDS011;14177;51.520;6.764;2024-01-10T07:50:26;18.13;;;7.50;;
26502;SDS011;14177;51.520;6.764;2024-01-10T07:52:55;14.93;;;6.70;;
26502;SDS011;14177;51.520;6.764;2024-01-10T07:55:22;13.60;;;6.28;;
26502;SDS011;14177;51.520;6.764;2024-01-10T07:57:49;14.80;;;7.13;;
26502;SDS011;14177;51.520;6.764;2024-01-10T08:00:16;16.35;;;7.28;;
26502;SDS011;14177;51.520;6.764;2024-01-10T08:02:46;16.38;;;6.38;;
26502;SDS011;14177;51.520;6.764;2024-01-10T08:05:15;14.13;;;6.32;;
26502;SDS011;14177;51.520;6.764;2024-01-10T08:07:42;10.07;;;5.70;;
26502;SDS011;14177;51.520;6.764;2024-01-10T08:10:09;14.73;;;6.40;;
26502;SDS011;14177;51.520;6.764;2024-01-10T08:12:37;15.18;;;6.72;;
26502;SDS011;14177;51.520;6.764;2024-01-10T08:15:10;14.32;;;7.00;;
26502;SDS011;14177;51.520;6.764;2024-01-10T08:17:37;15.18;;;6.35;;
26502;SDS011;14177;51.520;6.764;2024-01-10T08:20:05;15.88;;;7.32;;
26502;SDS011;14177;51.520;6.764;2024-01-10T08:22:35;14.40;;;7.03;;
26502;SDS011;14177;51.520;6.764;2024-01-10T08:25:01;14.75;;;7.50;;
26502;SDS011;14177;51.520;6.764;2024-01-10T08:27:29;16.25;;;7.57;;
26502;SDS011;14177;51.520;6.764;2024-01-10T08:29:56;14.05;;;7.32;;
26502;SDS011;14177;51.520;6.764;2024-01-10T08:32:23;17.20;;;6.95;;
26502;SDS011;14177;51.520;6.764;2024-01-10T08:34:50;14.15;;;7.20;;
26502;SDS011;14177;51.520;6.764;2024-01-10T08:37:18;15.73;;;7.03;;
26502;SDS011;14177;51.520;6.764;2024-01-10T08:39:45;16.08;;;6.60;;
26502;SDS011;14177;51.520;6.764;2024-01-10T08:42:12;16.33;;;7.35;;
26502;SDS011;14177;51.520;6.764;2024-01-10T08:44:39;11.40;;;6.53;;
26502;SDS011;14177;51.520;6.764;2024-01-10T08:47:06;19.83;;;7.50;;
26502;SDS011;14177;51.520;6.764;2024-01-10T08:49:34;15.35;;;8.00;;
26502;SDS011;14177;51.520;6.764;2024-01-10T08:52:02;14.77;;;8.00;;
26502;SDS011;14177;51.520;6.764;2024-01-10T08:54:30;16.25;;;7.70;;
26502;SDS011;14177;51.520;6.764;2024-01-10T08:56:57;22.20;;;9.75;;
26502;SDS011;14177;51.520;6.764;2024-01-10T08:59:25;17.23;;;7.93;;
26502;SDS011;14177;51.520;6.764;2024-01-10T09:01:54;14.75;;;7.18;;
26502;SDS011;14177;51.520;6.764;2024-01-10T09:04:21;18.45;;;7.70;;
26502;SDS011;14177;51.520;6.764;2024-01-10T09:06:48;15.95;;;7.28;;
26502;SDS011;14177;51.520;6.764;2024-01-10T09:09:16;19.73;;;8.13;;
26502;SDS011;14177;51.520;6.764;2024-01-10T09:11:47;19.17;;;7.88;;
26502;SDS011;14177;51.520;6.764;2024-01-10T09:14:14;16.95;;;8.25;;
26502;SDS011;14177;51.520;6.764;2024-01-10T09:16:41;18.13;;;7.95;;
26502;SDS011;14177;51.520;6.764;2024-01-10T09:19:09;15.25;;;7.00;;
26502;SDS011;14177;51.520;6.764;2024-01-10T09:21:38;19.25;;;8.10;;
26502;SDS011;14177;51.520;6.764;2024-01-10T09:24:06;17.30;;;7.97;;
26502;SDS011;14177;51.520;6.764;2024-01-10T09:26:54;18.27;;;7.55;;
26502;SDS011;14177;51.520;6.764;2024-01-10T09:29:21;27.27;;;7.40;;
26502;SDS011;14177;51.520;6.764;2024-01-10T09:31:50;18.42;;;7.65;;
26502;SDS011;14177;51.520;6.764;2024-01-10T09:34:17;20.65;;;8.15;;
26502;SDS011;14177;51.520;6.764;2024-01-10T09:36:44;18.35;;;7.88;;
26502;SDS011;14177;51.520;6.764;2024-01-10T09:39:11;20.75;;;8.00;;
26502;SDS011;14177;51.520;6.764;2024-01-10T09:41:42;20.92;;;8.63;;
26502;SDS011;14177;51.520;6.764;2024-01-10T09:46:46;16.30;;;7.22;;
26502;SDS011;14177;51.520;6.764;2024-01-10T09:49:18;19.07;;;8.30;;
26502;SDS011;14177;51.520;6.764;2024-01-10T09:51:50;21.10;;;9.27;;
26502;SDS011;14177;51.520;6.764;2024-01-10T09:54:24;23.08;;;8.90;;
26502;SDS011;14177;51.520;6.764;2024-01-10T09:56:56;16.52;;;7.68;;
26502;SDS011;14177;51.520;6.764;2024-01-10T09:59:24;17.70;;;8.60;;
26502;SDS011;14177;51.520;6.764;2024-01-10T10:01:53;23.15;;;9.07;;
26502;SDS011;14177;51.520;6.764;2024-01-10T10:04:23;19.08;;;8.75;;
26502;SDS011;14177;51.520;6.764;2024-01-10T10:07:02;19.40;;;9.07;;
26502;SDS011;14177;51.520;6.764;2024-01-10T10:09:30;20.23;;;8.75;;
26502;SDS011;14177;51.520;6.764;2024-01-10T10:11:57;19.30;;;9.98;;
26502;SDS011;14177;51.520;6.764;2024-01-10T10:14:26;23.63;;;10.38;;
26502;SDS011;14177;51.520;6.764;2024-01-10T10:16:56;23.23;;;9.25;;
26502;SDS011;14177;51.520;6.764;2024-01-10T10:19:39;17.00;;;8.40;;
26502;SDS011;14177;51.520;6.764;2024-01-10T10:22:07;18.65;;;8.98;;
26502;SDS011;14177;51.520;6.764;2024-01-10T10:24:38;18.63;;;7.82;;
26502;SDS011;14177;51.520;6.764;2024-01-10T10:27:08;21.10;;;8.63;;
26502;SDS011;14177;51.520;6.764;2024-01-10T10:29:36;18.90;;;9.45;;
26502;SDS011;14177;51.520;6.764;2024-01-10T10:32:04;22.20;;;9.60;;
26502;SDS011;14177;51.520;6.764;2024-01-10T10:34:32;21.52;;;9.70;;
26502;SDS011;14177;51.520;6.764;2024-01-10T10:37:00;21.20;;;9.63;;
26502;SDS011;14177;51.520;6.764;2024-01-10T10:39:29;21.90;;;9.52;;
26502;SDS011;14177;51.520;6.764;2024-01-10T10:41:56;27.45;;;9.95;;
26502;SDS011;14177;51.520;6.764;2024-01-10T10:44:24;20.23;;;9.05;;
26502;SDS011;14177;51.520;6.764;2024-01-10T10:46:52;25.08;;;9.30;;
26502;SDS011;14177;51.520;6.764;2024-01-10T10:49:37;21.65;;;9.57;;
26502;SDS011;14177;51.520;6.764;2024-01-10T10:52:16;21.15;;;9.88;;
26502;SDS011;14177;51.520;6.764;2024-01-10T10:54:46;27.42;;;10.35;;
26502;SDS011;14177;51.520;6.764;2024-01-10T10:57:14;23.17;;;9.57;;
26502;SDS011;14177;51.520;6.764;2024-01-10T10:59:46;21.10;;;10.38;;
26502;SDS011;14177;51.520;6.764;2024-01-10T11:02:20;22.55;;;9.43;;
26502;SDS011;14177;51.520;6.764;2024-01-10T11:04:54;25.73;;;9.90;;
26502;SDS011;14177;51.520;6.764;2024-01-10T11:07:22;25.75;;;11.10;;
26502;SDS011;14177;51.520;6.764;2024-01-10T11:09:49;21.92;;;9.98;;
26502;SDS011;14177;51.520;6.764;2024-01-10T11:15:13;25.92;;;10.82;;
26502;SDS011;14177;51.520;6.764;2024-01-10T11:21:12;24.35;;;10.70;;
26502;SDS011;14177;51.520;6.764;2024-01-10T11:24:29;26.83;;;10.13;;
26502;SDS011;14177;51.520;6.764;2024-01-10T11:27:11;21.92;;;10.07;;
26502;SDS011;14177;51.520;6.764;2024-01-10T11:29:40;24.48;;;10.85;;
26502;SDS011;14177;51.520;6.764;2024-01-10T11:32:14;23.50;;;10.57;;
26502;SDS011;14177;51.520;6.764;2024-01-10T11:34:58;21.60;;;11.02;;
26502;SDS011;14177;51.520;6.764;2024-01-10T11:37:39;25.05;;;11.57;;
26502;SDS011;14177;51.520;6.764;2024-01-10T11:40:11;23.17;;;11.00;;
26502;SDS011;14177;51.520;6.764;2024-01-10T11:42:42;27.65;;;11.55;;
26502;SDS011;14177;51.520;6.764;2024-01-10T11:48:00;23.73;;;11.00;;
26502;SDS011;14177;51.520;6.764;2024-01-10T11:50:27;22.75;;;11.15;;
26502;SDS011;14177;51.520;6.764;2024-01-10T11:52:57;21.08;;;9.65;;
26502;SDS011;14177;51.520;6.764;2024-01-10T11:58:20;22.98;;;9.82;;
26502;SDS011;14177;51.520;6.764;2024-01-10T12:00:50;25.05;;;11.70;;
26502;SDS011;14177;51.520;6.764;2024-01-10T12:03:18;24.65;;;11.75;;
26502;SDS011;14177;51.520;6.764;2024-01-10T12:05:46;23.27;;;10.98;;
26502;SDS011;14177;51.520;6.764;2024-01-10T12:08:14;23.55;;;11.48;;
26502;SDS011;14177;51.520;6.764;2024-01-10T12:10:47;21.80;;;11.38;;
26502;SDS011;14177;51.520;6.764;2024-01-10T12:13:14;25.10;;;11.25;;
26502;SDS011;14177;51.520;6.764;2024-01-10T12:15:49;20.05;;;11.07;;
26502;SDS011;14177;51.520;6.764;2024-01-10T12:18:24;25.08;;;10.73;;
26502;SDS011;14177;51.520;6.764;2024-01-10T12:21:05;29.13;;;11.20;;
26502;SDS011;14177;51.520;6.764;2024-01-10T12:23:39;20.92;;;10.35;;
26502;SDS011;14177;51.520;6.764;2024-01-10T12:26:14;23.27;;;11.38;;
26502;SDS011;14177;51.520;6.764;2024-01-10T12:28:53;24.80;;;10.63;;
26502;SDS011;14177;51.520;6.764;2024-01-10T12:31:33;25.90;;;10.85;;
26502;SDS011;14177;51.520;6.764;2024-01-10T12:34:23;24.38;;;11.30;;
26502;SDS011;14177;51.520;6.764;2024-01-10T12:37:00;27.45;;;12.35;;
26502;SDS011;14177;51.520;6.764;2024-01-10T12:39:39;26.45;;;10.75;;
26502;SDS011;14177;51.520;6.764;2024-01-10T12:42:11;22.30;;;10.75;;
26502;SDS011;14177;51.520;6.764;2024-01-10T12:44:43;25.23;;;11.18;;
26502;SDS011;14177;51.520;6.764;2024-01-10T12:47:21;23.83;;;11.93;;
26502;SDS011;14177;51.520;6.764;2024-01-10T12:49:53;26.88;;;11.75;;
26502;SDS011;14177;51.520;6.764;2024-01-10T12:52:24;27.42;;;12.10;;
26502;SDS011;14177;51.520;6.764;2024-01-10T12:54:57;24.95;;;11.50;;
26502;SDS011;14177;51.520;6.764;2024-01-10T12:57:31;27.70;;;12.20;;
26502;SDS011;14177;51.520;6.764;2024-01-10T12:59:58;24.33;;;11.63;;
26502;SDS011;14177;51.520;6.764;2024-01-10T13:02:25;24.27;;;11.15;;
26502;SDS011;14177;51.520;6.764;2024-01-10T13:04:52;23.27;;;11.05;;
26502;SDS011;14177;51.520;6.764;2024-01-10T13:07:19;25.58;;;11.35;;
26502;SDS011;14177;51.520;6.764;2024-01-10T13:09:46;28.38;;;12.32;;
26502;SDS011;14177;51.520;6.764;2024-01-10T13:12:13;24.83;;;10.50;;
26502;SDS011;14177;51.520;6.764;2024-01-10T13:14:40;25.50;;;11.43;;
26502;SDS011;14177;51.520;6.764;2024-01-10T13:17:08;23.48;;;10.90;;
26502;SDS011;14177;51.520;6.764;2024-01-10T13:19:35;25.10;;;11.77;;
26502;SDS011;14177;51.520;6.764;2024-01-10T13:22:03;26.60;;;11.90;;
26502;SDS011;14177;51.520;6.764;2024-01-10T13:24:34;27.98;;;11.60;;
26502;SDS011;14177;51.520;6.764;2024-01-10T13:27:01;27.27;;;12.00;;
26502;SDS011;14177;51.520;6.764;2024-01-10T13:29:28;25.90;;;11.02;;
26502;SDS011;14177;51.520;6.764;2024-01-10T13:31:55;27.88;;;11.82;;
26502;SDS011;14177;51.520;6.764;2024-01-10T13:34:22;23.45;;;11.43;;
26502;SDS011;14177;51.520;6.764;2024-01-10T13:36:49;26.20;;;10.43;;
26502;SDS011;14177;51.520;6.764;2024-01-10T13:39:16;22.88;;;10.95;;
26502;SDS011;14177;51.520;6.764;2024-01-10T13:41:43;27.60;;;11.55;;
26502;SDS011;14177;51.520;6.764;2024-01-10T13:44:10;27.63;;;11.45;;
26502;SDS011;14177;51.520;6.764;2024-01-10T13:46:37;27.30;;;11.02;;
26502;SDS011;14177;51.520;6.764;2024-01-10T13:49:05;21.52;;;10.60;;
26502;SDS011;14177;51.520;6.764;2024-01-10T13:51:32;24.25;;;11.32;;
26502;SDS011;14177;51.520;6.764;2024-01-10T13:53:59;25.05;;;10.48;;
26502;SDS011;14177;51.520;6.764;2024-01-10T13:56:26;22.10;;;11.13;;
26502;SDS011;14177;51.520;6.764;2024-01-10T13:58:54;22.45;;;11.05;;
26502;SDS011;14177;51.520;6.764;2024-01-10T14:01:21;24.58;;;10.73;;
26502;SDS011;14177;51.520;6.764;2024-01-10T14:03:48;33.38;;;12.20;;
26502;SDS011;14177;51.520;6.764;2024-01-10T14:06:15;23.60;;;9.73;;
26502;SDS011;14177;51.520;6.764;2024-01-10T14:08:42;22.08;;;11.13;;
26502;SDS011;14177;51.520;6.764;2024-01-10T14:11:12;26.08;;;11.02;;
26502;SDS011;14177;51.520;6.764;2024-01-10T14:13:39;22.00;;;10.38;;
26502;SDS011;14177;51.520;6.764;2024-01-10T14:16:06;20.02;;;9.82;;
26502;SDS011;14177;51.520;6.764;2024-01-10T14:18:32;24.30;;;10.27;;
26502;SDS011;14177;51.520;6.764;2024-01-10T14:21:00;23.10;;;9.82;;
26502;SDS011;14177;51.520;6.764;2024-01-10T14:23:27;18.88;;;9.48;;
26502;SDS011;14177;51.520;6.764;2024-01-10T14:25:54;29.42;;;10.25;;
26502;SDS011;14177;51.520;6.764;2024-01-10T14:28:21;21.50;;;9.88;;
26502;SDS011;14177;51.520;6.764;2024-01-10T14:30:49;21.80;;;9.63;;
26502;SDS011;14177;51.520;6.764;2024-01-10T14:33:19;16.92;;;9.40;;
26502;SDS011;14177;51.520;6.764;2024-01-10T14:35:46;21.88;;;9.75;;
26502;SDS011;14177;51.520;6.764;2024-01-10T14:38:13;20.25;;;9.18;;
26502;SDS011;14177;51.520;6.764;2024-01-10T14:40:40;26.52;;;10.20;;
26502;SDS011;14177;51.520;6.764;2024-01-10T14:43:08;18.90;;;9.30;;
26502;SDS011;14177;51.520;6.764;2024-01-10T14:45:35;18.38;;;10.02;;
26502;SDS011;14177;51.520;6.764;2024-01-10T14:48:02;23.80;;;9.98;;
26502;SDS011;14177;51.520;6.764;2024-01-10T14:50:30;24.67;;;9.60;;
26502;SDS011;14177;51.520;6.764;2024-01-10T14:52:57;23.83;;;10.80;;
26502;SDS011;14177;51.520;6.764;2024-01-10T14:55:24;23.50;;;9.13;;
26502;SDS011;14177;51.520;6.764;2024-01-10T14:57:51;23.00;;;9.75;;